Time;durP1;ratioP1;P1;durP2;ratioP2;P2;SDS_P1;SDS_P2;PMS_P1;PMS_P2;Temp;Humidity;BMP_temperature;BMP_pressure;BME280_temperature;BME280_humidity;BME280_pressure;Samples;Min_cycle;Max_cycle;Signal;HPM_P1;HPM_P2
2022/03/24 00:00:16;;;;;;;6.50;6.20;;;;;;;3.72;53.18;101387.66;5034550;28;20029;-63
2022/03/24 00:02:42;;;;;;;6.45;6.15;;;;;;;3.64;53.15;101387.38;5047996;28;20021;-63
2022/03/24 00:05:08;;;;;;;6.57;6.28;;;;;;;3.59;53.41;101372.78;5042787;28;20495;-62
2022/03/24 00:07:35;;;;;;;6.53;6.22;;;;;;;3.53;53.65;101370.59;5053230;28;20056;-62
2022/03/24 00:10:00;;;;;;;6.68;6.38;;;;;;;3.49;53.83;101368.28;5050997;28;20041;-63
2022/03/24 00:12:27;;;;;;;6.93;6.63;;;;;;;3.54;53.00;101371.44;5043678;28;20104;-62
2022/03/24 00:14:53;;;;;;;7.13;6.75;;;;;;;3.54;52.74;101364.41;5043937;28;20021;-63
2022/03/24 00:17:18;;;;;;;6.88;6.57;;;;;;;3.57;52.84;101369.44;5036316;28;20049;-62
2022/03/24 00:19:43;;;;;;;6.50;6.20;;;;;;;3.53;53.48;101367.16;5052698;28;20057;-62
2022/03/24 00:22:09;;;;;;;7.15;6.75;;;;;;;3.52;53.22;101355.78;5046596;28;20036;-62
2022/03/24 00:24:50;;;;;;;6.38;6.07;;;;;;;3.52;53.28;101365.44;5027655;28;20032;-63
2022/03/24 00:27:15;;;;;;;6.75;6.45;;;;;;;3.40;53.76;101361.91;5044427;28;20488;-64
2022/03/24 00:29:42;;;;;;;6.75;6.45;;;;;;;3.38;54.32;101352.47;5036615;28;20032;-62
2022/03/24 00:32:08;;;;;;;7.40;7.00;;;;;;;3.36;54.10;101352.56;5036462;28;20032;-62
2022/03/24 00:34:33;;;;;;;6.90;6.60;;;;;;;3.41;53.83;101353.09;5049923;28;20024;-62
2022/03/24 00:36:59;;;;;;;6.85;6.55;;;;;;;3.21;53.42;101325.66;5049230;28;20517;-64
2022/03/24 00:39:24;;;;;;;6.88;6.57;;;;;;;3.32;54.54;101353.75;5021466;28;20041;-65
2022/03/24 00:41:50;;;;;;;6.63;6.32;;;;;;;3.24;53.94;101342.97;5021648;28;20021;-65
2022/03/24 00:44:16;;;;;;;6.78;6.47;;;;;;;3.27;54.10;101345.38;5032622;28;20036;-63
2022/03/24 00:46:41;;;;;;;7.25;6.85;;;;;;;3.17;55.15;101342.56;5018066;28;20056;-63
2022/03/24 00:49:07;;;;;;;6.78;6.47;;;;;;;3.04;54.65;101315.50;5040662;28;20040;-63
2022/03/24 00:51:33;;;;;;;6.20;5.90;;;;;;;3.15;55.82;101335.72;5032311;28;20071;-64
2022/03/24 00:53:59;;;;;;;6.68;6.38;;;;;;;3.15;56.00;101333.94;5046636;28;20035;-64
2022/03/24 00:56:25;;;;;;;6.95;6.65;;;;;;;3.14;55.17;101328.81;5047567;28;20119;-62
2022/03/24 00:58:50;;;;;;;6.40;6.10;;;;;;;3.10;55.36;101330.81;5016465;28;20491;-63
2022/03/24 01:01:16;;;;;;;6.60;6.30;;;;;;;3.10;55.64;101314.25;5025200;28;20113;-62
2022/03/24 01:03:43;;;;;;;7.00;6.68;;;;;;;3.01;55.68;101319.19;5034552;28;20484;-62
2022/03/24 01:06:10;;;;;;;6.82;6.53;;;;;;;2.96;56.00;101313.44;5037656;28;20362;-63
2022/03/24 01:08:36;;;;;;;6.55;6.25;;;;;;;2.81;55.48;101295.31;5031967;28;20025;-63
2022/03/24 01:11:05;;;;;;;6.55;6.25;;;;;;;2.92;55.90;101317.19;5042837;28;20022;-63
2022/03/24 01:13:34;;;;;;;6.70;6.40;;;;;;;2.86;56.43;101319.38;5051953;28;20593;-62
2022/03/24 01:15:59;;;;;;;7.07;6.72;;;;;;;2.75;56.78;101307.88;5047820;28;20061;-62
2022/03/24 01:18:25;;;;;;;6.60;6.30;;;;;;;2.68;56.59;101293.53;5012298;28;20519;-63
2022/03/24 01:20:51;;;;;;;6.45;6.15;;;;;;;2.72;57.50;101310.72;5023077;28;20480;-63
2022/03/24 01:23:16;;;;;;;6.65;6.35;;;;;;;2.72;57.39;101304.66;5040464;28;20048;-63
2022/03/24 01:25:42;;;;;;;6.28;5.97;;;;;;;2.73;56.64;101306.31;5034568;28;20380;-63
2022/03/24 01:28:13;;;;;;;6.88;6.55;;;;;;;2.67;57.60;101307.56;5033397;28;20490;-63
2022/03/24 01:30:39;;;;;;;6.97;6.63;;;;;;;2.57;57.33;101300.41;5031949;28;20029;-63
2022/03/24 01:33:05;;;;;;;6.90;6.60;;;;;;;2.52;57.67;101302.53;5037956;28;20017;-63
2022/03/24 01:35:31;;;;;;;7.13;6.72;;;;;;;2.49;57.47;101293.91;5023985;28;20037;-62
2022/03/24 01:37:57;;;;;;;7.82;7.43;;;;;;;2.46;57.41;101295.94;5040892;28;20021;-63
2022/03/24 01:40:24;;;;;;;6.72;6.43;;;;;;;2.39;58.19;101289.44;5031929;28;20108;-63
2022/03/24 01:42:49;;;;;;;6.50;6.20;;;;;;;2.27;59.15;101285.00;5031258;28;20547;-63
2022/03/24 01:45:15;;;;;;;6.78;6.45;;;;;;;2.31;58.92;101291.72;5031590;28;20120;-63
2022/03/24 01:47:41;;;;;;;6.90;6.60;;;;;;;2.26;58.38;101288.56;5031587;28;20026;-63
2022/03/24 01:50:08;;;;;;;7.55;7.15;;;;;;;2.23;57.91;101279.16;5016613;28;20377;-63
2022/03/24 01:52:34;;;;;;;6.80;6.50;;;;;;;2.14;58.40;101274.53;5030543;28;20023;-64
2022/03/24 01:55:01;;;;;;;7.03;6.65;;;;;;;2.07;58.68;101274.09;5047984;28;20025;-63
2022/03/24 01:57:28;;;;;;;6.65;6.35;;;;;;;2.12;58.78;101276.38;5047162;28;20029;-63
2022/03/24 01:59:54;;;;;;;7.57;7.18;;;;;;;1.96;59.70;101268.72;5051389;28;20526;-63
2022/03/24 02:02:23;;;;;;;7.72;7.32;;;;;;;1.87;60.04;101262.31;5051404;28;20033;-63
2022/03/24 02:04:48;;;;;;;6.88;6.57;;;;;;;1.90;59.25;101269.94;5027318;28;20037;-64
2022/03/24 02:07:14;;;;;;;6.78;6.47;;;;;;;1.76;60.44;101253.47;5031588;28;20021;-63
2022/03/24 02:09:40;;;;;;;6.75;6.45;;;;;;;1.82;59.93;101269.63;5040275;28;20518;-62
2022/03/24 02:12:10;;;;;;;7.18;6.78;;;;;;;1.82;60.41;101267.00;5034453;28;20495;-63
2022/03/24 02:14:36;;;;;;;7.18;6.78;;;;;;;1.79;60.18;101261.16;5030546;28;20087;-63
2022/03/24 02:17:02;;;;;;;6.72;6.43;;;;;;;1.80;60.06;101258.44;5026413;28;20465;-63
2022/03/24 02:19:29;;;;;;;6.78;6.47;;;;;;;1.72;61.02;101263.31;5011605;28;20077;-62
2022/03/24 02:21:59;;;;;;;7.28;6.88;;;;;;;1.73;60.55;101272.00;5011486;28;20541;-63
2022/03/24 02:24:25;;;;;;;7.20;6.80;;;;;;;1.60;61.21;101266.72;5011176;28;20022;-63
2022/03/24 02:26:52;;;;;;;6.85;6.55;;;;;;;1.55;61.62;101264.41;5030558;28;20101;-63
2022/03/24 02:29:20;;;;;;;6.93;6.60;;;;;;;1.50;61.68;101258.63;5049445;28;20025;-63
2022/03/24 02:31:49;;;;;;;7.18;6.78;;;;;;;1.47;61.67;101257.97;5049387;28;20029;-64
2022/03/24 02:37:05;;;;;;;6.97;6.63;;;;;;;1.44;62.22;101258.19;5031345;28;20535;-63
2022/03/24 02:39:31;;;;;;;7.15;6.75;;;;;;;1.31;62.38;101248.50;5031187;28;20025;-62
2022/03/24 02:41:58;;;;;;;6.88;6.57;;;;;;;1.44;62.05;101247.72;5035422;28;20075;-62
2022/03/24 02:44:30;;;;;;;7.40;7.00;;;;;;;1.43;62.12;101241.66;5037973;28;20029;-63
2022/03/24 02:46:57;;;;;;;6.82;6.53;;;;;;;1.35;62.10;101254.38;5011872;28;20029;-62
2022/03/24 02:49:25;;;;;;;6.72;6.43;;;;;;;1.30;62.40;101248.59;5027365;28;20022;-62
2022/03/24 02:51:53;;;;;;;7.15;6.75;;;;;;;1.29;62.25;101253.00;5029687;28;20022;-63
2022/03/24 02:54:19;;;;;;;6.63;6.32;;;;;;;1.34;62.65;101253.56;5034464;28;20018;-62
2022/03/24 02:56:45;;;;;;;6.65;6.35;;;;;;;1.26;62.41;101249.75;5034405;28;20046;-63
2022/03/24 02:59:12;;;;;;;7.07;6.68;;;;;;;1.28;63.02;101243.47;5033118;28;20088;-63
2022/03/24 03:01:41;;;;;;;7.65;7.25;;;;;;;1.19;62.84;101249.31;5050044;28;20074;-62
2022/03/24 03:04:07;;;;;;;7.13;6.72;;;;;;;1.20;63.05;101245.75;5053642;28;20384;-62
2022/03/24 03:06:34;;;;;;;7.47;7.07;;;;;;;1.16;63.02;101249.47;5037555;28;20374;-63
2022/03/24 03:09:01;;;;;;;7.10;6.70;;;;;;;1.06;63.18;101243.16;5034253;28;20499;-63
2022/03/24 03:11:30;;;;;;;7.13;6.72;;;;;;;1.02;63.31;101245.09;5071439;28;20162;-63
2022/03/24 03:13:56;;;;;;;6.80;6.50;;;;;;;0.99;63.65;101234.88;5033891;28;20053;-63
2022/03/24 03:16:23;;;;;;;7.75;7.35;;;;;;;0.99;63.95;101244.47;5033245;28;20502;-63
2022/03/24 03:18:49;;;;;;;8.25;7.75;;;;;;;1.03;63.33;101238.13;5038432;28;20135;-63
2022/03/24 03:21:16;;;;;;;7.20;6.80;;;;;;;1.06;63.75;101235.31;5035882;28;20093;-63
2022/03/24 03:23:43;;;;;;;6.93;6.60;;;;;;;0.99;63.52;101227.03;5036385;28;20484;-63
2022/03/24 03:26:11;;;;;;;6.70;6.40;;;;;;;0.94;63.98;101229.06;5040552;28;20032;-63
2022/03/24 03:28:37;;;;;;;6.85;6.55;;;;;;;0.87;64.18;101229.56;5023465;28;20117;-63
2022/03/24 03:31:03;;;;;;;7.00;6.65;;;;;;;0.85;64.38;101227.03;5030042;28;20485;-63
2022/03/24 03:33:29;;;;;;;7.07;6.68;;;;;;;0.78;64.75;101226.59;5040341;28;20048;-63
2022/03/24 03:35:55;;;;;;;6.68;6.38;;;;;;;0.78;65.10;101228.34;5042721;28;20018;-64
2022/03/24 03:38:22;;;;;;;6.72;6.43;;;;;;;0.71;65.28;101232.28;5033841;28;20049;-63
2022/03/24 03:40:48;;;;;;;6.57;6.28;;;;;;;0.73;65.17;101227.78;5051459;28;20147;-63
2022/03/24 03:43:14;;;;;;;6.40;6.10;;;;;;;0.72;65.38;101229.56;5012728;28;20112;-63
2022/03/24 03:45:43;;;;;;;7.20;6.80;;;;;;;0.70;65.29;101238.44;5013984;28;20026;-63
2022/03/24 03:48:09;;;;;;;6.88;6.57;;;;;;;0.73;65.45;101233.00;5016611;28;20606;-63
2022/03/24 03:50:36;;;;;;;6.72;6.43;;;;;;;0.79;64.74;101237.88;5044989;28;20043;-63
2022/03/24 03:53:01;;;;;;;6.45;6.15;;;;;;;0.79;64.55;101238.69;5033507;28;20504;-63
2022/03/24 03:55:28;;;;;;;6.85;6.55;;;;;;;0.78;64.94;101226.59;5032567;28;20044;-63
2022/03/24 03:57:54;;;;;;;6.68;6.38;;;;;;;0.81;64.83;101230.78;5052502;28;20029;-63
2022/03/24 04:03:05;;;;;;;6.38;6.07;;;;;;;0.59;65.38;101222.56;5053572;28;20055;-62
2022/03/24 04:05:32;;;;;;;6.30;6.00;;;;;;;0.62;65.38;101233.69;5044999;28;20476;-64
2022/03/24 04:07:57;;;;;;;6.60;6.30;;;;;;;0.68;65.23;101224.66;5036823;28;20079;-63
2022/03/24 04:10:23;;;;;;;7.45;6.93;;;;;;;0.72;64.67;101233.94;5026485;28;20099;-63
2022/03/24 04:12:51;;;;;;;6.75;6.45;;;;;;;0.96;64.04;101229.84;5050014;28;20084;-63
2022/03/24 04:15:16;;;;;;;6.40;6.10;;;;;;;1.14;63.54;101232.22;5033114;28;20145;-62
2022/03/24 04:17:42;;;;;;;6.65;6.35;;;;;;;1.19;63.27;101227.56;5033050;28;20112;-63
2022/03/24 04:20:08;;;;;;;6.40;6.10;;;;;;;1.42;62.43;101221.69;5033435;28;20465;-63
2022/03/24 04:22:35;;;;;;;6.30;6.00;;;;;;;1.76;61.16;101224.72;5030655;28;20025;-63
2022/03/24 04:25:01;;;;;;;6.97;6.57;;;;;;;2.11;60.11;101233.69;5034758;28;20536;-63
2022/03/24 04:27:26;;;;;;;7.00;6.60;;;;;;;2.43;58.90;101225.44;5030589;28;20124;-64
2022/03/24 04:29:52;;;;;;;7.03;6.68;;;;;;;2.63;57.97;101219.66;5035064;28;20049;-63
2022/03/24 04:32:18;;;;;;;7.07;6.68;;;;;;;2.82;57.58;101221.84;5052343;28;20047;-63
2022/03/24 04:34:45;;;;;;;5.70;5.50;;;;;;;3.12;56.33;101218.81;5040705;28;20072;-63
2022/03/24 04:37:11;;;;;;;6.10;5.80;;;;;;;3.67;54.80;101198.22;5039962;28;20037;-63
2022/03/24 04:39:36;;;;;;;6.63;6.32;;;;;;;3.92;54.36;101205.94;5048106;28;20480;-63
2022/03/24 04:42:06;;;;;;;6.35;6.05;;;;;;;4.31;53.20;101209.13;5038356;28;20033;-63
2022/03/24 04:44:32;;;;;;;6.45;6.15;;;;;;;4.74;53.24;101205.81;5042372;28;20044;-63
2022/03/24 04:46:58;;;;;;;7.35;6.95;;;;;;;6.06;53.07;101208.16;5021603;28;20037;-62
2022/03/24 04:49:23;;;;;;;6.38;6.07;;;;;;;6.50;49.22;101200.09;5034570;28;20746;-63
2022/03/24 04:51:49;;;;;;;6.38;6.07;;;;;;;7.91;45.80;101201.59;5036608;28;20537;-64
2022/03/24 04:54:14;;;;;;;7.00;6.70;;;;;;;8.96;42.17;101209.34;5030297;28;20037;-63
2022/03/24 04:56:40;;;;;;;7.38;6.97;;;;;;;10.20;38.86;101209.34;5029479;28;20497;-63
2022/03/24 04:59:05;;;;;;;6.82;6.53;;;;;;;10.67;37.28;101205.53;5035864;28;20171;-65
2022/03/24 05:01:31;;;;;;;6.53;6.22;;;;;;;11.18;35.56;101212.53;5037533;28;20433;-67
2022/03/24 05:03:57;;;;;;;7.13;6.82;;;;;;;11.34;34.36;101212.56;5030719;28;20026;-67
2022/03/24 05:06:22;;;;;;;7.05;6.75;;;;;;;12.29;33.03;101209.44;5022361;28;20025;-67
2022/03/24 05:08:48;;;;;;;6.68;6.38;;;;;;;12.32;32.52;101217.91;5028832;28;20386;-67
2022/03/24 05:11:13;;;;;;;7.20;6.90;;;;;;;13.17;31.85;101206.63;5033904;28;20049;-67
2022/03/24 05:13:38;;;;;;;8.20;7.80;;;;;;;13.38;31.11;101214.88;5031957;28;20177;-68
2022/03/24 05:16:04;;;;;;;7.10;6.80;;;;;;;14.16;29.90;101213.75;5032322;28;20049;-65
2022/03/24 05:18:30;;;;;;;7.32;7.03;;;;;;;15.01;28.42;101210.66;5031401;28;20481;-66
2022/03/24 05:20:55;;;;;;;6.65;6.35;;;;;;;14.45;29.47;101218.28;5031757;28;20033;-67
2022/03/24 05:23:21;;;;;;;7.32;7.03;;;;;;;15.93;27.54;101215.34;5035363;28;20056;-68
2022/03/24 05:25:49;;;;;;;6.93;6.63;;;;;;;15.78;26.79;101210.06;5037667;28;20022;-67
2022/03/24 05:28:16;;;;;;;7.05;6.75;;;;;;;16.29;26.31;101208.00;5031454;28;20095;-67
2022/03/24 05:30:42;;;;;;;7.28;6.97;;;;;;;17.13;25.57;101221.28;5031922;28;20021;-66
2022/03/24 05:33:08;;;;;;;7.15;6.85;;;;;;;16.75;25.36;101218.22;5042649;28;20431;-67
2022/03/24 05:35:35;;;;;;;7.10;6.80;;;;;;;17.43;24.86;101215.56;5033953;28;20108;-67
2022/03/24 05:38:04;;;;;;;7.20;6.90;;;;;;;18.20;24.17;101214.22;5046956;28;20026;-66
2022/03/24 05:40:31;;;;;;;7.57;7.28;;;;;;;18.43;23.99;101216.44;5031597;28;20033;-67
2022/03/24 05:42:57;;;;;;;6.90;6.60;;;;;;;18.80;23.26;101220.31;5039787;28;20021;-67
2022/03/24 05:45:22;;;;;;;7.10;6.80;;;;;;;19.02;22.70;101216.31;5034281;28;20075;-67
2022/03/24 05:47:48;;;;;;;7.35;7.05;;;;;;;19.20;22.94;101217.47;5027690;28;20018;-69
2022/03/24 05:50:13;;;;;;;7.57;7.28;;;;;;;20.33;21.59;101207.53;5031071;28;20105;-69
2022/03/24 05:52:40;;;;;;;7.32;7.03;;;;;;;20.94;20.74;101209.41;5030980;28;20025;-68
2022/03/24 05:55:08;;;;;;;7.38;7.07;;;;;;;20.11;21.35;101204.44;5031912;28;20049;-69
2022/03/24 05:57:34;;;;;;;7.55;7.25;;;;;;;21.13;20.70;101207.47;5031166;28;20420;-71
2022/03/24 05:59:59;;;;;;;7.40;7.10;;;;;;;21.38;20.95;101209.28;5033477;28;20035;-67
2022/03/24 06:02:25;;;;;;;7.30;7.00;;;;;;;21.50;20.22;101212.81;5010242;28;20030;-67
2022/03/24 06:04:53;;;;;;;7.50;7.20;;;;;;;21.73;19.78;101210.16;5020615;28;20033;-67
2022/03/24 06:07:18;;;;;;;7.20;6.90;;;;;;;22.16;19.54;101203.66;5030444;28;20091;-68
2022/03/24 06:09:48;;;;;;;7.28;6.97;;;;;;;21.90;19.66;101204.09;5028369;28;20468;-68
2022/03/24 06:12:15;;;;;;;7.30;7.00;;;;;;;21.38;20.08;101199.28;5041494;28;20480;-67
2022/03/24 06:14:41;;;;;;;7.25;6.95;;;;;;;22.48;19.14;101200.63;5050678;28;20025;-67
2022/03/24 06:17:07;;;;;;;7.30;7.00;;;;;;;22.24;18.61;101202.50;5032718;28;20103;-67
2022/03/24 06:19:35;;;;;;;7.50;7.20;;;;;;;23.15;18.33;101204.47;5030869;28;20038;-68
2022/03/24 06:22:01;;;;;;;7.22;6.93;;;;;;;21.89;19.21;101188.97;5030836;28;20033;-67
2022/03/24 06:24:27;;;;;;;7.18;6.88;;;;;;;22.34;18.49;101194.63;5030807;28;20040;-67
2022/03/24 06:26:53;;;;;;;7.25;6.95;;;;;;;22.50;18.66;101190.38;5043475;28;20079;-67
2022/03/24 06:29:19;;;;;;;7.35;7.05;;;;;;;22.25;18.82;101183.34;5054666;28;20025;-67
2022/03/24 06:31:45;;;;;;;7.20;6.90;;;;;;;22.29;18.66;101186.41;5019295;28;20022;-67
2022/03/24 06:34:11;;;;;;;7.18;6.88;;;;;;;22.67;18.35;101193.16;5038521;28;20500;-67
2022/03/24 06:36:37;;;;;;;7.20;6.90;;;;;;;22.60;18.61;101188.69;5034689;28;20040;-68
2022/03/24 06:39:03;;;;;;;7.30;7.00;;;;;;;23.72;17.14;101187.34;5034420;28;20033;-67
2022/03/24 06:41:29;;;;;;;7.18;6.88;;;;;;;23.47;17.26;101192.31;5034285;28;20026;-68
2022/03/24 06:43:59;;;;;;;7.07;6.78;;;;;;;23.41;17.05;101185.97;5032365;28;20032;-68
2022/03/24 06:46:28;;;;;;;7.10;6.80;;;;;;;22.61;17.84;101178.72;5033575;28;20040;-69
2022/03/24 06:48:54;;;;;;;7.40;7.10;;;;;;;23.83;17.06;101183.75;5033652;28;20032;-67
2022/03/24 06:51:20;;;;;;;7.20;6.90;;;;;;;23.29;17.85;101187.94;5034430;28;20032;-67
2022/03/24 06:53:46;;;;;;;7.40;7.10;;;;;;;23.27;17.72;101188.16;5034190;28;20421;-67
2022/03/24 06:56:11;;;;;;;7.65;7.35;;;;;;;23.65;17.22;101182.13;5033994;28;20064;-67
2022/03/24 06:58:37;;;;;;;7.60;7.30;;;;;;;25.24;16.29;101171.53;5033868;28;20040;-67
2022/03/24 07:01:03;;;;;;;7.35;7.05;;;;;;;25.56;15.97;101179.69;5034460;28;20039;-67
2022/03/24 07:03:30;;;;;;;7.28;6.97;;;;;;;24.25;16.54;101175.16;5034332;28;20026;-68
2022/03/24 07:05:55;;;;;;;7.40;7.10;;;;;;;24.45;16.93;101164.59;5032989;28;20041;-68
2022/03/24 07:08:23;;;;;;;7.55;7.25;;;;;;;25.21;16.13;101167.44;5033909;28;20025;-67
2022/03/24 07:10:50;;;;;;;7.40;7.10;;;;;;;24.82;16.24;101166.69;5033988;28;20025;-68
2022/03/24 07:13:16;;;;;;;7.32;7.03;;;;;;;24.12;17.29;101165.50;5029684;28;20036;-67
2022/03/24 07:15:41;;;;;;;7.13;6.82;;;;;;;24.53;16.49;101174.19;5027318;28;20601;-67
2022/03/24 07:18:07;;;;;;;7.40;7.10;;;;;;;24.78;16.38;101168.28;5033857;28;20033;-68
2022/03/24 07:20:34;;;;;;;7.30;7.00;;;;;;;24.36;16.80;101168.81;5030958;28;20052;-68
2022/03/24 07:23:02;;;;;;;7.60;7.30;;;;;;;25.32;15.65;101161.00;5035342;28;20080;-68
2022/03/24 07:25:29;;;;;;;7.50;7.20;;;;;;;24.89;16.35;101163.78;5046436;28;20021;-69
2022/03/24 07:27:54;;;;;;;7.50;7.20;;;;;;;25.20;15.88;101162.25;5044794;28;20029;-69
2022/03/24 07:30:20;;;;;;;7.10;6.80;;;;;;;26.35;14.96;101170.75;5053813;28;20154;-68
2022/03/24 07:32:46;;;;;;;7.10;6.80;;;;;;;25.28;15.80;101164.50;5047542;28;20116;-66
2022/03/24 07:35:14;;;;;;;7.30;7.00;;;;;;;25.47;15.68;101168.47;5043743;28;20039;-70
2022/03/24 07:37:40;;;;;;;7.20;6.90;;;;;;;26.40;15.17;101162.66;5022416;28;20033;-70
2022/03/24 07:40:08;;;;;;;7.38;7.07;;;;;;;25.79;15.56;101162.25;5031653;28;20435;-70
2022/03/24 07:42:34;;;;;;;7.50;7.20;;;;;;;26.68;15.06;101154.09;5029536;28;20029;-70
2022/03/24 07:45:00;;;;;;;7.40;7.10;;;;;;;26.67;14.72;101146.19;5031660;28;20045;-70
2022/03/24 07:47:26;;;;;;;7.18;6.88;;;;;;;26.74;14.47;101154.13;5033673;28;20033;-70
2022/03/24 07:49:52;;;;;;;7.38;7.07;;;;;;;25.94;15.01;101151.50;5051837;28;20369;-69
2022/03/24 07:52:17;;;;;;;7.55;7.25;;;;;;;25.88;15.47;101147.09;5039229;28;20039;-65
2022/03/24 07:54:55;;;;;;;7.30;7.00;;;;;;;26.44;15.37;101142.00;5044212;28;20488;-64
2022/03/24 07:57:24;;;;;;;7.45;7.15;;;;;;;26.91;14.97;101146.53;5035008;28;20056;-69
2022/03/24 07:59:50;;;;;;;7.30;7.00;;;;;;;26.33;15.30;101135.66;5040875;28;20035;-70
2022/03/24 08:02:17;;;;;;;7.28;6.97;;;;;;;26.41;14.83;101131.66;5043057;28;20259;-69
2022/03/24 08:04:43;;;;;;;7.10;6.80;;;;;;;25.81;15.46;101133.72;5035198;28;20017;-69
2022/03/24 08:07:08;;;;;;;7.32;7.03;;;;;;;27.42;14.58;101128.38;5037554;28;20029;-68
2022/03/24 08:09:34;;;;;;;7.50;7.20;;;;;;;27.15;14.36;101131.34;5034559;28;20064;-70
2022/03/24 08:12:00;;;;;;;7.20;6.90;;;;;;;27.62;14.36;101121.28;5035306;28;20033;-69
2022/03/24 08:14:26;;;;;;;7.30;7.00;;;;;;;27.13;14.54;101122.63;5042885;28;20041;-68
2022/03/24 08:16:52;;;;;;;7.28;6.97;;;;;;;27.36;14.59;101118.56;5046532;28;20025;-69
2022/03/24 08:19:17;;;;;;;7.53;7.22;;;;;;;26.18;15.74;101109.22;5039656;28;20025;-70
2022/03/24 08:21:43;;;;;;;7.10;6.80;;;;;;;25.62;15.77;101097.97;5041073;28;20560;-71
2022/03/24 08:24:09;;;;;;;7.22;6.93;;;;;;;26.23;15.61;101103.00;5035551;28;20030;-71
2022/03/24 08:26:37;;;;;;;7.00;6.70;;;;;;;26.69;14.96;101100.47;5046578;28;20102;-69
2022/03/24 08:29:04;;;;;;;7.10;6.80;;;;;;;27.21;14.78;101108.47;5047728;28;20017;-70
2022/03/24 08:31:30;;;;;;;7.35;7.05;;;;;;;27.71;13.58;101103.31;5048762;28;20048;-70
2022/03/24 08:33:56;;;;;;;7.15;6.85;;;;;;;24.68;14.91;101095.72;5040576;28;20043;-69
2022/03/24 08:36:23;;;;;;;7.40;7.10;;;;;;;27.52;13.63;101101.13;5042405;28;20507;-69
2022/03/24 08:38:49;;;;;;;7.32;7.03;;;;;;;27.70;13.13;101090.78;5027971;28;20040;-69
2022/03/24 08:41:14;;;;;;;7.28;6.97;;;;;;;26.80;13.76;101093.94;5039884;28;20020;-69
2022/03/24 08:43:40;;;;;;;7.28;6.97;;;;;;;26.26;13.96;101082.59;5050413;28;20045;-69
2022/03/24 08:46:08;;;;;;;7.70;7.40;;;;;;;25.44;14.49;101081.25;5031352;28;20029;-70
2022/03/24 08:48:35;;;;;;;8.15;7.82;;;;;;;24.36;14.79;101079.34;5024509;28;20484;-69
2022/03/24 08:51:01;;;;;;;7.40;7.10;;;;;;;25.01;14.67;101083.03;5031164;28;20036;-69
2022/03/24 08:53:27;;;;;;;7.60;7.30;;;;;;;24.41;14.85;101073.16;5048009;28;20021;-70
2022/03/24 08:55:52;;;;;;;7.20;6.90;;;;;;;23.89;15.35;101073.56;5031683;28;20039;-69
2022/03/24 08:58:18;;;;;;;7.40;7.10;;;;;;;24.24;15.08;101074.03;5032210;28;20032;-69
2022/03/24 09:00:47;;;;;;;7.70;7.40;;;;;;;23.30;15.79;101070.47;5031013;28;20036;-69
2022/03/24 09:03:13;;;;;;;7.20;6.90;;;;;;;23.98;15.02;101056.59;5032785;28;20872;-70
2022/03/24 09:05:39;;;;;;;7.30;7.00;;;;;;;23.05;15.75;101051.88;5030120;28;20059;-69
2022/03/24 09:08:06;;;;;;;7.28;6.97;;;;;;;22.91;15.77;101050.56;5035697;28;20033;-70
2022/03/24 09:10:32;;;;;;;7.60;7.30;;;;;;;23.00;15.55;101051.81;5041562;28;20112;-70
2022/03/24 09:12:58;;;;;;;7.63;7.32;;;;;;;23.05;15.91;101043.78;5032301;28;20432;-69
2022/03/24 09:15:24;;;;;;;7.85;7.55;;;;;;;23.24;15.61;101026.22;5031504;28;20025;-69
2022/03/24 09:17:50;;;;;;;7.70;7.40;;;;;;;23.74;15.37;101033.53;5030590;28;20013;-70
2022/03/24 09:20:23;;;;;;;7.40;7.10;;;;;;;23.75;15.29;101028.91;5047740;28;20500;-70
2022/03/24 09:22:48;;;;;;;7.40;7.10;;;;;;;22.16;16.41;101022.59;5032293;28;20500;-70
2022/03/24 09:25:16;;;;;;;7.72;7.43;;;;;;;22.37;16.28;101026.53;5033333;28;20021;-69
2022/03/24 09:27:43;;;;;;;7.55;7.25;;;;;;;23.02;15.90;101031.56;5032708;28;20021;-70
2022/03/24 09:30:12;;;;;;;7.78;7.47;;;;;;;21.86;16.63;101014.66;5028312;28;20765;-70
2022/03/24 09:32:38;;;;;;;12.15;11.55;;;;;;;23.34;15.98;101023.69;5030129;28;20040;-68
2022/03/24 09:35:04;;;;;;;7.90;7.60;;;;;;;22.79;15.95;101012.72;5035393;28;20021;-68
2022/03/24 09:37:32;;;;;;;7.30;7.00;;;;;;;22.47;16.17;101007.81;5022900;28;20515;-70
2022/03/24 09:39:58;;;;;;;7.40;7.10;;;;;;;22.38;16.37;100997.63;5029448;28;20029;-70
2022/03/24 09:42:24;;;;;;;7.70;7.40;;;;;;;21.95;17.04;101013.22;5039665;28;20032;-69
2022/03/24 09:44:50;;;;;;;7.97;7.60;;;;;;;22.03;16.85;101012.03;5039014;28;20033;-70
2022/03/24 09:47:16;;;;;;;7.80;7.50;;;;;;;22.03;17.07;101007.47;5035725;28;20041;-69
2022/03/24 09:49:43;;;;;;;7.43;7.13;;;;;;;22.06;16.86;101012.41;5037358;28;20143;-69
2022/03/24 09:52:10;;;;;;;7.28;6.97;;;;;;;21.35;17.25;100996.50;5039943;28;20066;-69
2022/03/24 09:54:37;;;;;;;8.02;7.63;;;;;;;21.28;17.46;100996.59;5048392;28;20067;-69
2022/03/24 09:57:08;;;;;;;7.25;6.95;;;;;;;20.65;17.52;101000.69;5042812;28;20057;-69
2022/03/24 09:59:33;;;;;;;7.40;7.10;;;;;;;20.33;17.58;100991.97;5044873;28;20030;-70
2022/03/24 10:02:02;;;;;;;7.85;7.55;;;;;;;20.45;17.54;100994.75;5035998;28;20028;-69
2022/03/24 10:04:28;;;;;;;7.15;6.85;;;;;;;20.17;17.42;101000.69;5036936;28;20040;-69
2022/03/24 10:07:01;;;;;;;7.30;7.00;;;;;;;19.64;17.90;100995.09;5032362;28;20029;-70
2022/03/24 10:09:40;;;;;;;7.07;6.78;;;;;;;19.79;17.84;100996.38;5028557;28;20558;-69
2022/03/24 10:12:08;;;;;;;7.10;6.80;;;;;;;19.77;18.08;100987.69;5039371;28;20127;-70
2022/03/24 10:14:34;;;;;;;7.38;7.07;;;;;;;19.36;18.63;100990.97;5044404;28;20057;-71
2022/03/24 10:17:10;;;;;;;7.30;7.00;;;;;;;19.11;19.29;100987.47;5037413;28;20033;-70
2022/03/24 10:19:37;;;;;;;8.18;7.78;;;;;;;19.29;19.29;100984.81;5036854;28;20041;-70
2022/03/24 10:22:11;;;;;;;7.25;6.95;;;;;;;19.15;19.46;100970.66;5034932;28;20030;-71
2022/03/24 10:24:42;;;;;;;7.25;6.95;;;;;;;19.22;19.28;100995.66;5037619;28;20033;-71
2022/03/24 10:27:08;;;;;;;7.57;7.28;;;;;;;18.74;19.96;100993.53;5043409;28;20404;-70
2022/03/24 10:29:35;;;;;;;7.28;6.97;;;;;;;18.58;20.18;100991.34;5036031;28;20048;-71
2022/03/24 10:32:03;;;;;;;7.60;7.30;;;;;;;18.82;20.07;100989.75;5038698;28;20511;-70
2022/03/24 10:34:33;;;;;;;7.40;7.10;;;;;;;18.57;20.48;100986.16;5043253;28;20040;-69
2022/03/24 10:37:12;;;;;;;7.18;6.88;;;;;;;18.72;20.80;100994.78;5034116;28;20045;-69
2022/03/24 10:39:40;;;;;;;7.40;7.10;;;;;;;18.86;21.02;100995.50;5045100;28;20055;-69
2022/03/24 10:42:18;;;;;;;8.35;7.95;;;;;;;18.60;21.39;100986.56;5030803;28;20055;-69
2022/03/24 10:45:07;;;;;;;7.07;6.78;;;;;;;18.43;21.83;100975.50;5032004;28;20057;-66
2022/03/24 10:47:42;;;;;;;9.80;9.30;;;;;;;18.25;21.98;100993.38;5040993;28;20125;-66
2022/03/24 10:50:29;;;;;;;8.35;7.95;;;;;;;18.22;22.09;100989.25;5033350;28;20104;-66
2022/03/24 10:53:16;;;;;;;7.88;7.47;;;;;;;18.40;22.21;100967.06;5034102;28;20021;-66
2022/03/24 10:55:44;;;;;;;6.88;6.57;;;;;;;18.50;22.56;100981.66;5040049;28;20048;-66
2022/03/24 10:58:38;;;;;;;7.28;6.97;;;;;;;18.62;22.60;100972.91;5031563;28;20099;-67
2022/03/24 11:01:07;;;;;;;7.95;7.55;;;;;;;18.47;23.09;100970.53;5039058;28;20029;-67
2022/03/24 11:03:33;;;;;;;7.47;7.18;;;;;;;18.47;22.88;100968.66;5052073;28;20484;-66
2022/03/24 11:06:12;;;;;;;7.95;7.55;;;;;;;18.30;22.75;100962.16;5032542;28;20084;-65
2022/03/24 11:08:40;;;;;;;8.20;7.80;;;;;;;18.25;22.70;100972.72;5031052;28;20056;-66
2022/03/24 11:11:07;;;;;;;8.82;8.43;;;;;;;18.54;22.16;100971.31;5029169;28;20041;-70
2022/03/24 11:13:47;;;;;;;7.30;7.00;;;;;;;18.53;22.17;100974.22;5050423;28;20099;-69
2022/03/24 11:16:13;;;;;;;7.70;7.40;;;;;;;18.40;22.01;100967.88;5035121;28;20537;-69
2022/03/24 11:18:40;;;;;;;7.40;7.10;;;;;;;18.26;22.25;100970.84;5031579;28;20033;-69
2022/03/24 11:21:13;;;;;;;7.97;7.57;;;;;;;18.32;22.10;100978.88;5041879;28;20032;-68
2022/03/24 11:23:42;;;;;;;7.38;7.07;;;;;;;18.44;21.32;100976.34;5040842;28;20116;-68
2022/03/24 11:26:10;;;;;;;7.65;7.35;;;;;;;18.28;21.65;100961.53;5031013;28;20057;-67
2022/03/24 11:28:37;;;;;;;7.93;7.57;;;;;;;18.69;21.57;100979.09;5028996;28;20035;-68
2022/03/24 11:31:14;;;;;;;7.40;7.10;;;;;;;18.49;21.71;100961.19;5036834;28;20079;-68
2022/03/24 11:33:47;;;;;;;7.25;6.95;;;;;;;18.25;21.95;100961.97;5033527;28;20029;-68